createdAt,value
2022-07-26T00:03:04.421Z,20.40
2022-07-26T00:07:13.196Z,20.30
2022-07-26T00:11:22.651Z,20.30
2022-07-26T00:15:51.334Z,20.20
2022-07-26T00:20:00.116Z,20.20
2022-07-26T00:24:09.497Z,20.20
2022-07-26T00:28:18.112Z,20.20
2022-07-26T00:32:26.847Z,20.10
2022-07-26T00:36:35.379Z,20.00
2022-07-26T00:40:45.640Z,20.00
2022-07-26T00:44:54.495Z,20.00
2022-07-26T00:49:03.281Z,20.00
2022-07-26T00:53:11.944Z,20.00
2022-07-26T00:57:21.895Z,20.10
2022-07-26T01:01:30.545Z,20.00
2022-07-26T01:05:39.340Z,19.90
2022-07-26T01:09:48.022Z,20.00
2022-07-26T01:13:56.568Z,20.00
2022-07-26T01:18:05.232Z,20.00
2022-07-26T01:22:14.741Z,20.00
2022-07-26T01:26:25.813Z,19.80
2022-07-26T01:30:33.827Z,19.80
2022-07-26T01:34:42.427Z,19.80
2022-07-26T01:38:51.977Z,19.90
2022-07-26T01:43:01.113Z,19.80
2022-07-26T01:47:09.698Z,19.80
2022-07-26T01:51:19.201Z,19.80
2022-07-26T01:55:27.835Z,19.80
2022-07-26T01:59:36.428Z,19.80
2022-07-26T02:03:45.197Z,19.90
2022-07-26T02:07:53.988Z,19.80
2022-07-26T02:12:05.027Z,19.70
2022-07-26T02:16:17.083Z,19.70
2022-07-26T02:20:25.648Z,19.50
2022-07-26T02:24:34.897Z,19.60
2022-07-26T02:28:43.493Z,19.50
2022-07-26T02:33:11.465Z,19.50
2022-07-26T02:37:20.190Z,19.50
2022-07-26T02:41:28.786Z,19.40
2022-07-26T02:45:37.727Z,19.40
2022-07-26T02:49:46.414Z,19.30
2022-07-26T02:53:55.008Z,19.30
2022-07-26T02:58:03.639Z,19.40
2022-07-26T03:02:12.233Z,19.40
2022-07-26T03:06:21.715Z,19.40
2022-07-26T03:10:30.401Z,19.30
2022-07-26T03:14:39.620Z,19.30
2022-07-26T03:18:48.234Z,19.20
2022-07-26T03:22:56.842Z,19.20
2022-07-26T03:27:05.664Z,19.20
2022-07-26T03:31:14.649Z,19.10
2022-07-26T03:35:23.325Z,19.00
2022-07-26T03:39:31.931Z,18.90
2022-07-26T03:43:40.454Z,18.90
2022-07-26T03:47:49.221Z,18.90
2022-07-26T03:51:57.769Z,19.00
2022-07-26T03:56:24.474Z,19.00
2022-07-26T04:00:33.081Z,19.10
2022-07-26T04:04:41.683Z,18.90
2022-07-26T04:08:50.953Z,18.90
2022-07-26T04:12:59.632Z,18.90
2022-07-26T04:17:08.373Z,18.70
2022-07-26T04:21:17.016Z,18.70
2022-07-26T04:25:25.680Z,18.80
2022-07-26T04:29:34.281Z,18.90
2022-07-26T04:33:42.945Z,18.80
2022-07-26T04:37:51.542Z,18.90
2022-07-26T04:42:00.128Z,18.90
2022-07-26T04:46:08.902Z,18.90
2022-07-26T04:50:19.619Z,18.80
2022-07-26T04:54:28.189Z,18.80
2022-07-26T04:58:36.787Z,18.80
2022-07-26T05:02:45.418Z,18.90
2022-07-26T05:07:13.392Z,18.90
2022-07-26T05:11:22.026Z,18.90
2022-07-26T05:15:35.345Z,18.90
2022-07-26T05:19:46.104Z,19.00
2022-07-26T05:23:52.172Z,19.10
2022-07-26T05:28:00.855Z,19.20
2022-07-26T05:32:09.457Z,19.20
2022-07-26T05:36:26.050Z,19.20
2022-07-26T05:40:34.746Z,19.20
2022-07-26T05:44:43.344Z,19.30
2022-07-26T05:49:12.461Z,19.20
2022-07-26T05:53:21.454Z,19.30
2022-07-26T05:57:30.077Z,19.30
2022-07-26T09:39:33.435Z,22.10
2022-07-26T09:43:41.905Z,22.30
2022-07-26T09:47:50.846Z,22.60
2022-07-26T09:51:59.450Z,22.80
2022-07-26T09:56:09.230Z,22.90
2022-07-26T10:00:19.080Z,22.70
2022-07-26T10:04:27.969Z,21.80
2022-07-26T10:08:36.764Z,20.90
2022-07-26T10:12:46.788Z,20.20
2022-07-26T10:16:55.407Z,19.90
2022-07-26T10:21:22.026Z,19.90
2022-07-26T10:25:36.673Z,19.90
2022-07-26T10:29:45.406Z,19.90
2022-07-26T10:33:55.946Z,19.80
2022-07-26T10:38:07.754Z,19.80
2022-07-26T10:42:16.415Z,20.00
2022-07-26T10:46:26.937Z,20.30
2022-07-26T10:50:36.247Z,20.50
2022-07-26T10:54:59.946Z,20.70
2022-07-26T10:59:08.972Z,20.70
2022-07-26T11:03:18.217Z,20.80
2022-07-26T11:07:29.649Z,21.20
2022-07-26T11:11:38.325Z,21.40
2022-07-26T11:15:51.953Z,21.60
2022-07-26T11:20:01.035Z,21.60
2022-07-26T11:24:10.318Z,21.60
2022-07-26T11:28:20.829Z,21.80
2022-07-26T11:32:30.606Z,21.90
2022-07-26T11:36:42.461Z,22.00
2022-07-26T11:40:51.068Z,22.20
2022-07-26T11:45:00.215Z,22.60
2022-07-26T11:49:31.177Z,22.60
2022-07-26T11:53:38.940Z,22.70
2022-07-26T11:57:47.477Z,22.50
2022-07-26T12:01:57.235Z,22.90
2022-07-26T12:06:08.756Z,23.20
2022-07-26T12:10:17.972Z,23.40
2022-07-26T12:14:32.567Z,23.40
2022-07-26T12:18:41.454Z,23.20
2022-07-26T12:22:59.479Z,22.80
2022-07-26T12:27:18.074Z,22.40
2022-07-26T12:31:34.394Z,22.30
2022-07-26T12:35:43.674Z,22.40
2022-07-26T12:40:08.091Z,22.70
2022-07-26T12:44:17.593Z,22.60
2022-07-26T12:48:26.341Z,22.60
2022-07-26T12:52:36.611Z,23.00
2022-07-26T12:56:46.354Z,23.00
2022-07-26T13:00:55.571Z,23.00
2022-07-26T13:05:04.937Z,23.30
2022-07-26T13:09:13.497Z,23.20
2022-07-26T13:13:22.236Z,22.80
2022-07-26T13:17:31.623Z,23.00
2022-07-26T13:21:40.244Z,23.20
2022-07-26T13:25:48.958Z,23.20
2022-07-26T13:29:58.367Z,23.10
2022-07-26T13:34:07.675Z,23.10
2022-07-26T13:38:18.104Z,22.90
2022-07-26T13:42:26.915Z,22.80
2022-07-26T13:46:36.324Z,22.50
2022-07-26T13:50:47.534Z,22.00
2022-07-26T13:54:56.143Z,21.70
2022-07-26T13:59:04.772Z,21.70
2022-07-26T14:03:13.499Z,21.60
2022-07-26T14:07:23.600Z,21.40
2022-07-26T14:11:32.445Z,21.10
2022-07-26T14:15:41.736Z,20.90
2022-07-26T14:19:51.523Z,21.00
2022-07-26T14:24:01.278Z,21.00
2022-07-26T14:28:10.118Z,21.10
2022-07-26T14:32:22.041Z,21.20
2022-07-26T14:36:30.758Z,21.30
2022-07-26T14:40:39.543Z,21.40
2022-07-26T14:44:48.228Z,21.50
2022-07-26T14:48:59.824Z,21.50
2022-07-26T14:53:09.003Z,21.80
2022-07-26T14:57:19.088Z,22.00
2022-07-26T15:01:28.518Z,21.80
2022-07-26T15:05:37.602Z,21.80
2022-07-26T15:09:46.193Z,21.90
2022-07-26T15:13:54.812Z,21.80
2022-07-26T15:18:03.425Z,21.90
2022-07-26T15:22:12.109Z,21.80
2022-07-26T15:26:21.512Z,21.70
2022-07-26T15:30:30.889Z,21.40
2022-07-26T15:34:42.175Z,21.10
2022-07-26T15:38:50.784Z,20.90
2022-07-26T15:42:59.567Z,20.90
2022-07-26T15:47:08.881Z,20.90
2022-07-26T15:51:18.091Z,20.90
2022-07-26T15:55:26.752Z,20.90
2022-07-26T15:59:35.532Z,21.10
2022-07-26T16:03:44.168Z,21.20
2022-07-26T16:07:52.787Z,21.20
2022-07-26T16:12:05.954Z,21.30
2022-07-26T16:16:12.388Z,21.30
2022-07-26T16:20:22.208Z,21.20
2022-07-26T16:24:31.409Z,21.00
2022-07-26T16:28:40.033Z,20.90
2022-07-26T16:32:48.941Z,20.80
2022-07-26T16:36:57.547Z,20.70
2022-07-26T16:41:06.221Z,20.40
2022-07-26T16:45:15.005Z,20.20
2022-07-26T16:49:23.684Z,20.30
2022-07-26T16:53:33.806Z,20.40
2022-07-26T16:57:43.267Z,20.40
2022-07-26T17:01:51.923Z,20.30
2022-07-26T17:06:06.306Z,20.30
2022-07-26T17:10:12.454Z,20.30
2022-07-26T17:14:21.086Z,20.40
2022-07-26T17:18:30.263Z,20.30
2022-07-26T17:22:39.107Z,20.30
2022-07-26T17:26:47.838Z,20.20
2022-07-26T17:30:56.699Z,19.90
2022-07-26T17:35:07.149Z,19.80
2022-07-26T17:39:15.977Z,19.70
2022-07-26T17:43:24.674Z,19.70
2022-07-26T17:47:35.056Z,19.60
2022-07-26T17:51:45.430Z,19.60
2022-07-26T17:55:54.266Z,19.60
2022-07-26T18:00:07.111Z,19.70
2022-07-26T18:04:18.237Z,19.70
2022-07-26T18:08:29.999Z,19.70
2022-07-26T18:12:38.769Z,19.60
2022-07-26T18:16:48.442Z,19.60
2022-07-26T18:20:58.760Z,19.60
2022-07-26T18:25:08.312Z,19.40
2022-07-26T18:29:16.925Z,19.30
2022-07-26T18:33:26.491Z,19.30
2022-07-26T18:37:35.256Z,19.30
2022-07-26T18:41:43.845Z,19.40
2022-07-26T18:45:52.531Z,19.40
2022-07-26T18:50:01.135Z,19.30
2022-07-26T18:54:11.002Z,19.30
2022-07-26T18:58:21.804Z,19.20
2022-07-26T19:02:31.798Z,19.20
2022-07-26T19:06:40.504Z,19.10
2022-07-26T19:10:49.119Z,19.10
2022-07-26T19:14:59.362Z,19.20
2022-07-26T19:19:07.976Z,19.20
2022-07-26T19:23:16.567Z,19.20
2022-07-26T19:27:27.919Z,19.20
2022-07-26T19:31:36.806Z,19.20
2022-07-26T19:35:45.779Z,19.20
2022-07-26T19:39:56.857Z,19.10
2022-07-26T19:44:05.937Z,19.00
2022-07-26T19:48:15.463Z,19.00
2022-07-26T19:52:43.502Z,18.80
2022-07-26T19:56:52.700Z,18.70
2022-07-26T20:01:01.507Z,18.70
2022-07-26T20:05:11.865Z,18.60
2022-07-26T20:09:20.454Z,18.60
2022-07-26T20:13:29.745Z,18.60
2022-07-26T20:17:39.760Z,18.60
2022-07-26T20:22:07.914Z,18.50
2022-07-26T20:26:18.430Z,18.50
2022-07-26T20:30:27.839Z,18.40
2022-07-26T20:34:36.487Z,18.30
2022-07-26T20:38:51.084Z,18.30
2022-07-26T20:42:57.040Z,18.20
2022-07-26T20:47:05.791Z,18.10
2022-07-26T20:51:14.434Z,18.10
2022-07-26T20:55:24.029Z,18.10
2022-07-26T20:59:34.743Z,18.10
2022-07-26T21:03:43.331Z,18.10
2022-07-26T21:08:11.331Z,18.10
2022-07-26T21:12:21.266Z,18.10
2022-07-26T21:16:29.951Z,18.10
2022-07-26T21:20:38.776Z,18.00
2022-07-26T21:24:47.385Z,18.00
2022-07-26T21:28:55.985Z,17.90
2022-07-26T21:33:05.478Z,17.90
2022-07-26T21:37:14.872Z,17.80
2022-07-26T21:41:23.464Z,17.80
2022-07-26T21:45:32.139Z,17.80
2022-07-26T21:49:40.685Z,17.70
2022-07-26T21:53:49.844Z,17.60
2022-07-26T21:57:58.525Z,17.70
2022-07-26T22:02:07.242Z,17.60
2022-07-26T22:06:16.811Z,17.60
2022-07-26T22:10:25.732Z,17.60
2022-07-26T22:14:34.429Z,17.70
2022-07-26T22:18:43.105Z,17.70
2022-07-26T22:22:51.675Z,17.70
2022-07-26T22:27:00.212Z,17.70
2022-07-26T22:31:09.345Z,17.70
2022-07-26T22:35:18.253Z,17.60
2022-07-26T22:39:27.130Z,17.50
2022-07-26T22:43:35.731Z,17.40
2022-07-26T22:47:55.614Z,17.40
2022-07-26T22:52:14.711Z,17.40
2022-07-26T22:56:23.326Z,17.40
2022-07-26T23:00:32.931Z,17.40
2022-07-26T23:04:51.620Z,17.30
2022-07-26T23:09:01.399Z,17.30
2022-07-26T23:13:10.001Z,17.10
2022-07-26T23:17:18.957Z,17.10
2022-07-26T23:21:27.842Z,17.10
2022-07-26T23:25:36.540Z,17.20
2022-07-26T23:29:45.195Z,17.20
2022-07-26T23:33:55.447Z,17.20
2022-07-26T23:38:04.101Z,17.10
2022-07-26T23:42:12.758Z,17.10
2022-07-26T23:46:22.020Z,17.10
2022-07-26T23:50:30.740Z,17.00
2022-07-26T23:54:39.349Z,17.00
2022-07-26T23:58:48.009Z,16.90
